sensor_id;sensor_type;location;lat;lon;timestamp;temperature;humidity
5711;DHT22;61291;52.524;13.422;2023-01-16T00:01:56;4.90;99.90
5711;DHT22;61291;52.524;13.422;2023-01-16T00:04:22;5.00;99.90
5711;DHT22;61291;52.524;13.422;2023-01-16T00:06:48;5.20;99.90
5711;DHT22;61291;52.524;13.422;2023-01-16T00:09:13;5.40;99.90
5711;DHT22;61291;52.524;13.422;2023-01-16T00:11:42;5.60;99.90
5711;DHT22;61291;52.524;13.422;2023-01-16T00:14:07;5.70;99.90
5711;DHT22;61291;52.524;13.422;2023-01-16T00:16:33;5.90;99.90
5711;DHT22;61291;52.524;13.422;2023-01-16T00:18:58;6.00;99.90
5711;DHT22;61291;52.524;13.422;2023-01-16T00:21:24;6.00;99.90
5711;DHT22;61291;52.524;13.422;2023-01-16T00:23:54;6.10;99.90
5711;DHT22;61291;52.524;13.422;2023-01-16T00:26:20;6.20;99.90
5711;DHT22;61291;52.524;13.422;2023-01-16T00:28:46;6.30;99.90
5711;DHT22;61291;52.524;13.422;2023-01-16T00:31:11;6.30;99.90
5711;DHT22;61291;52.524;13.422;2023-01-16T00:33:37;6.40;99.90
5711;DHT22;61291;52.524;13.422;2023-01-16T00:36:03;6.40;99.90
5711;DHT22;61291;52.524;13.422;2023-01-16T00:38:28;6.40;99.90
5711;DHT22;61291;52.524;13.422;2023-01-16T00:40:54;6.40;99.90
5711;DHT22;61291;52.524;13.422;2023-01-16T00:43:19;6.40;99.90
5711;DHT22;61291;52.524;13.422;2023-01-16T00:45:45;6.50;99.90
5711;DHT22;61291;52.524;13.422;2023-01-16T00:48:10;6.50;99.90
5711;DHT22;61291;52.524;13.422;2023-01-16T00:50:36;6.50;99.90
5711;DHT22;61291;52.524;13.422;2023-01-16T00:53:01;6.50;99.90
5711;DHT22;61291;52.524;13.422;2023-01-16T00:55:27;6.50;99.90
5711;DHT22;61291;52.524;13.422;2023-01-16T00:57:52;6.50;99.90
5711;DHT22;61291;52.524;13.422;2023-01-16T01:00:19;6.60;99.90
5711;DHT22;61291;52.524;13.422;2023-01-16T01:02:47;6.60;99.90
5711;DHT22;61291;52.524;13.422;2023-01-16T01:05:13;6.60;99.90
5711;DHT22;61291;52.524;13.422;2023-01-16T01:07:39;6.60;99.90
5711;DHT22;61291;52.524;13.422;2023-01-16T01:10:05;6.60;99.90
5711;DHT22;61291;52.524;13.422;2023-01-16T01:12:30;6.60;99.90
5711;DHT22;61291;52.524;13.422;2023-01-16T01:14:56;6.60;99.90
5711;DHT22;61291;52.524;13.422;2023-01-16T01:17:21;6.50;99.90
5711;DHT22;61291;52.524;13.422;2023-01-16T01:19:47;6.50;99.90
5711;DHT22;61291;52.524;13.422;2023-01-16T01:22:13;6.40;99.90
5711;DHT22;61291;52.524;13.422;2023-01-16T01:24:41;6.30;99.90
5711;DHT22;61291;52.524;13.422;2023-01-16T01:27:06;6.30;99.90
5711;DHT22;61291;52.524;13.422;2023-01-16T01:29:32;6.10;99.90
5711;DHT22;61291;52.524;13.422;2023-01-16T01:31:58;5.90;99.90
5711;DHT22;61291;52.524;13.422;2023-01-16T01:34:23;5.70;99.90
5711;DHT22;61291;52.524;13.422;2023-01-16T01:36:48;5.50;99.90
5711;DHT22;61291;52.524;13.422;2023-01-16T01:39:14;5.30;99.90
5711;DHT22;61291;52.524;13.422;2023-01-16T01:41:39;5.10;99.90
5711;DHT22;61291;52.524;13.422;2023-01-16T01:47:08;4.80;99.90
5711;DHT22;61291;52.524;13.422;2023-01-16T01:49:34;4.70;99.90
5711;DHT22;61291;52.524;13.422;2023-01-16T01:52:02;4.70;99.90
5711;DHT22;61291;52.524;13.422;2023-01-16T01:54:45;4.50;99.90
5711;DHT22;61291;52.524;13.422;2023-01-16T01:57:19;4.60;99.90
5711;DHT22;61291;52.524;13.422;2023-01-16T01:59:59;4.60;99.90
5711;DHT22;61291;52.524;13.422;2023-01-16T02:02:30;4.60;99.90
5711;DHT22;61291;52.524;13.422;2023-01-16T02:04:56;4.70;99.90
5711;DHT22;61291;52.524;13.422;2023-01-16T02:07:23;4.90;99.90
5711;DHT22;61291;52.524;13.422;2023-01-16T02:09:55;5.10;99.90
5711;DHT22;61291;52.524;13.422;2023-01-16T02:12:21;5.20;99.90
5711;DHT22;61291;52.524;13.422;2023-01-16T02:14:48;5.30;99.90
5711;DHT22;61291;52.524;13.422;2023-01-16T02:17:16;5.30;99.90
5711;DHT22;61291;52.524;13.422;2023-01-16T02:20:18;5.40;99.90
5711;DHT22;61291;52.524;13.422;2023-01-16T02:26:12;5.40;99.90
5711;DHT22;61291;52.524;13.422;2023-01-16T02:29:11;5.40;99.90
5711;DHT22;61291;52.524;13.422;2023-01-16T02:32:06;5.40;99.90
5711;DHT22;61291;52.524;13.422;2023-01-16T02:34:45;5.40;99.90
5711;DHT22;61291;52.524;13.422;2023-01-16T02:37:28;5.50;99.90
5711;DHT22;61291;52.524;13.422;2023-01-16T02:40:20;5.50;99.90
5711;DHT22;61291;52.524;13.422;2023-01-16T02:43:12;5.60;99.90
5711;DHT22;61291;52.524;13.422;2023-01-16T02:45:58;5.60;99.90
5711;DHT22;61291;52.524;13.422;2023-01-16T02:48:32;5.50;99.90
5711;DHT22;61291;52.524;13.422;2023-01-16T02:51:19;5.50;99.90
5711;DHT22;61291;52.524;13.422;2023-01-16T02:54:23;5.50;99.90
5711;DHT22;61291;52.524;13.422;2023-01-16T02:57:01;5.60;99.90
5711;DHT22;61291;52.524;13.422;2023-01-16T02:59:29;5.60;99.90
5711;DHT22;61291;52.524;13.422;2023-01-16T03:01:56;5.70;99.90
5711;DHT22;61291;52.524;13.422;2023-01-16T03:04:39;5.70;99.90
5711;DHT22;61291;52.524;13.422;2023-01-16T03:07:44;5.70;99.90
5711;DHT22;61291;52.524;13.422;2023-01-16T03:12:56;5.70;99.90
5711;DHT22;61291;52.524;13.422;2023-01-16T03:15:32;5.70;99.90
5711;DHT22;61291;52.524;13.422;2023-01-16T03:21:30;5.70;99.90
5711;DHT22;61291;52.524;13.422;2023-01-16T03:24:06;5.60;99.90
5711;DHT22;61291;52.524;13.422;2023-01-16T03:26:43;5.50;99.90
5711;DHT22;61291;52.524;13.422;2023-01-16T03:29:32;5.30;99.90
5711;DHT22;61291;52.524;13.422;2023-01-16T03:32:07;5.10;99.90
5711;DHT22;61291;52.524;13.422;2023-01-16T03:34:42;4.90;99.90
5711;DHT22;61291;52.524;13.422;2023-01-16T03:37:16;4.90;99.90
5711;DHT22;61291;52.524;13.422;2023-01-16T03:39:46;4.90;99.90
5711;DHT22;61291;52.524;13.422;2023-01-16T03:42:25;5.00;99.90
5711;DHT22;61291;52.524;13.422;2023-01-16T03:44:55;5.00;99.90
5711;DHT22;61291;52.524;13.422;2023-01-16T03:47:34;5.00;99.90
5711;DHT22;61291;52.524;13.422;2023-01-16T03:50:04;4.90;99.90
5711;DHT22;61291;52.524;13.422;2023-01-16T03:52:34;4.90;99.90
5711;DHT22;61291;52.524;13.422;2023-01-16T03:57:39;4.80;99.90
5711;DHT22;61291;52.524;13.422;2023-01-16T04:00:07;4.70;99.90
5711;DHT22;61291;52.524;13.422;2023-01-16T04:02:46;4.80;99.90
5711;DHT22;61291;52.524;13.422;2023-01-16T04:05:18;4.80;99.90
5711;DHT22;61291;52.524;13.422;2023-01-16T04:07:47;4.90;99.90
5711;DHT22;61291;52.524;13.422;2023-01-16T04:10:20;5.00;99.90
5711;DHT22;61291;52.524;13.422;2023-01-16T04:12:51;5.10;99.90
5711;DHT22;61291;52.524;13.422;2023-01-16T04:15:18;5.10;99.90
5711;DHT22;61291;52.524;13.422;2023-01-16T04:17:45;5.10;99.90
5711;DHT22;61291;52.524;13.422;2023-01-16T04:20:11;5.10;99.90
5711;DHT22;61291;52.524;13.422;2023-01-16T04:22:36;5.00;99.90
5711;DHT22;61291;52.524;13.422;2023-01-16T04:25:06;4.90;99.90
5711;DHT22;61291;52.524;13.422;2023-01-16T04:27:33;4.70;99.90
5711;DHT22;61291;52.524;13.422;2023-01-16T04:29:58;4.60;99.90
5711;DHT22;61291;52.524;13.422;2023-01-16T04:32:24;4.40;99.90
5711;DHT22;61291;52.524;13.422;2023-01-16T04:34:49;4.30;99.90
5711;DHT22;61291;52.524;13.422;2023-01-16T04:37:15;4.10;99.90
5711;DHT22;61291;52.524;13.422;2023-01-16T04:39:42;4.00;99.90
5711;DHT22;61291;52.524;13.422;2023-01-16T04:42:08;3.80;99.90
5711;DHT22;61291;52.524;13.422;2023-01-16T04:44:34;3.80;99.90
5711;DHT22;61291;52.524;13.422;2023-01-16T04:47:00;3.70;99.90
5711;DHT22;61291;52.524;13.422;2023-01-16T04:49:25;3.60;99.90
5711;DHT22;61291;52.524;13.422;2023-01-16T04:51:51;3.60;99.90
5711;DHT22;61291;52.524;13.422;2023-01-16T04:54:18;3.50;99.90
5711;DHT22;61291;52.524;13.422;2023-01-16T04:56:43;3.50;99.90
5711;DHT22;61291;52.524;13.422;2023-01-16T04:59:10;3.40;99.90
5711;DHT22;61291;52.524;13.422;2023-01-16T05:01:35;3.40;99.90
5711;DHT22;61291;52.524;13.422;2023-01-16T05:04:03;3.40;99.90
5711;DHT22;61291;52.524;13.422;2023-01-16T05:06:29;3.40;99.90
5711;DHT22;61291;52.524;13.422;2023-01-16T05:08:55;3.50;99.90
5711;DHT22;61291;52.524;13.422;2023-01-16T05:11:20;3.60;99.90
5711;DHT22;61291;52.524;13.422;2023-01-16T05:13:46;3.60;99.90
5711;DHT22;61291;52.524;13.422;2023-01-16T05:16:11;3.60;99.90
5711;DHT22;61291;52.524;13.422;2023-01-16T05:18:37;3.70;99.90
5711;DHT22;61291;52.524;13.422;2023-01-16T05:21:02;3.80;99.90
5711;DHT22;61291;52.524;13.422;2023-01-16T05:23:29;3.90;99.90
5711;DHT22;61291;52.524;13.422;2023-01-16T05:25:54;4.00;99.90
5711;DHT22;61291;52.524;13.422;2023-01-16T05:28:20;4.10;99.90
5711;DHT22;61291;52.524;13.422;2023-01-16T05:30:49;4.10;99.90
5711;DHT22;61291;52.524;13.422;2023-01-16T05:33:14;4.20;99.90
5711;DHT22;61291;52.524;13.422;2023-01-16T05:35:39;4.30;99.90
5711;DHT22;61291;52.524;13.422;2023-01-16T05:38:05;4.40;99.90
5711;DHT22;61291;52.524;13.422;2023-01-16T05:40:31;4.50;99.90
5711;DHT22;61291;52.524;13.422;2023-01-16T05:42:56;4.50;99.90
5711;DHT22;61291;52.524;13.422;2023-01-16T05:45:21;4.60;99.90
5711;DHT22;61291;52.524;13.422;2023-01-16T05:47:47;4.70;99.90
5711;DHT22;61291;52.524;13.422;2023-01-16T05:50:12;4.80;99.90
5711;DHT22;61291;52.524;13.422;2023-01-16T05:52:38;4.80;99.90
5711;DHT22;61291;52.524;13.422;2023-01-16T05:55:04;4.90;99.90
5711;DHT22;61291;52.524;13.422;2023-01-16T05:57:30;4.90;99.90
5711;DHT22;61291;52.524;13.422;2023-01-16T05:59:55;5.00;99.90
5711;DHT22;61291;52.524;13.422;2023-01-16T06:02:21;5.00;99.90
5711;DHT22;61291;52.524;13.422;2023-01-16T06:04:46;5.00;99.90
5711;DHT22;61291;52.524;13.422;2023-01-16T06:07:13;5.00;99.90
5711;DHT22;61291;52.524;13.422;2023-01-16T06:09:39;5.10;99.90
5711;DHT22;61291;52.524;13.422;2023-01-16T06:12:05;5.00;99.90
5711;DHT22;61291;52.524;13.422;2023-01-16T06:14:33;5.00;99.90
5711;DHT22;61291;52.524;13.422;2023-01-16T06:16:58;5.00;99.90
5711;DHT22;61291;52.524;13.422;2023-01-16T06:19:24;5.00;99.90
5711;DHT22;61291;52.524;13.422;2023-01-16T06:21:49;5.00;99.90
5711;DHT22;61291;52.524;13.422;2023-01-16T06:24:15;4.90;99.90
5711;DHT22;61291;52.524;13.422;2023-01-16T06:26:40;4.90;99.90
5711;DHT22;61291;52.524;13.422;2023-01-16T06:29:06;4.90;99.90
5711;DHT22;61291;52.524;13.422;2023-01-16T06:31:31;5.00;99.90
5711;DHT22;61291;52.524;13.422;2023-01-16T06:33:56;5.00;99.90
5711;DHT22;61291;52.524;13.422;2023-01-16T06:36:22;5.00;99.90
5711;DHT22;61291;52.524;13.422;2023-01-16T06:38:47;5.00;99.90
5711;DHT22;61291;52.524;13.422;2023-01-16T06:41:13;5.00;99.90
5711;DHT22;61291;52.524;13.422;2023-01-16T06:43:38;5.00;99.90
5711;DHT22;61291;52.524;13.422;2023-01-16T06:46:04;4.90;99.90
5711;DHT22;61291;52.524;13.422;2023-01-16T06:48:29;4.90;99.90
5711;DHT22;61291;52.524;13.422;2023-01-16T06:50:56;4.80;99.90
5711;DHT22;61291;52.524;13.422;2023-01-16T06:53:24;4.80;99.90
5711;DHT22;61291;52.524;13.422;2023-01-16T06:55:49;4.80;99.90
5711;DHT22;61291;52.524;13.422;2023-01-16T06:58:15;4.90;99.90
5711;DHT22;61291;52.524;13.422;2023-01-16T07:00:40;4.90;99.90
5711;DHT22;61291;52.524;13.422;2023-01-16T07:03:06;4.90;99.90
5711;DHT22;61291;52.524;13.422;2023-01-16T07:05:32;5.00;99.90
5711;DHT22;61291;52.524;13.422;2023-01-16T07:07:57;5.00;99.90
5711;DHT22;61291;52.524;13.422;2023-01-16T07:10:24;5.00;99.90
5711;DHT22;61291;52.524;13.422;2023-01-16T07:12:50;5.00;99.90
5711;DHT22;61291;52.524;13.422;2023-01-16T07:15:18;5.10;99.90
5711;DHT22;61291;52.524;13.422;2023-01-16T07:18:03;5.10;99.90
5711;DHT22;61291;52.524;13.422;2023-01-16T07:20:56;5.20;99.90
5711;DHT22;61291;52.524;13.422;2023-01-16T07:23:44;5.20;99.90
5711;DHT22;61291;52.524;13.422;2023-01-16T07:26:12;5.20;99.90
5711;DHT22;61291;52.524;13.422;2023-01-16T07:28:39;5.30;99.90
5711;DHT22;61291;52.524;13.422;2023-01-16T07:31:05;5.30;99.90
5711;DHT22;61291;52.524;13.422;2023-01-16T07:33:32;5.20;99.90
5711;DHT22;61291;52.524;13.422;2023-01-16T07:35:57;5.30;99.90
5711;DHT22;61291;52.524;13.422;2023-01-16T07:38:23;5.20;99.90
5711;DHT22;61291;52.524;13.422;2023-01-16T07:40:48;5.20;99.90
5711;DHT22;61291;52.524;13.422;2023-01-16T07:43:14;5.10;99.90
5711;DHT22;61291;52.524;13.422;2023-01-16T07:45:39;5.10;99.90
5711;DHT22;61291;52.524;13.422;2023-01-16T07:48:05;5.00;99.90
5711;DHT22;61291;52.524;13.422;2023-01-16T07:50:30;4.90;99.90
5711;DHT22;61291;52.524;13.422;2023-01-16T07:52:56;4.80;99.90
5711;DHT22;61291;52.524;13.422;2023-01-16T07:55:21;4.80;99.90
5711;DHT22;61291;52.524;13.422;2023-01-16T07:57:47;5.00;99.90
5711;DHT22;61291;52.524;13.422;2023-01-16T08:00:13;5.10;99.90
5711;DHT22;61291;52.524;13.422;2023-01-16T08:02:39;5.20;99.90
5711;DHT22;61291;52.524;13.422;2023-01-16T08:05:05;5.20;99.90
5711;DHT22;61291;52.524;13.422;2023-01-16T08:07:31;5.00;99.90
5711;DHT22;61291;52.524;13.422;2023-01-16T08:09:57;5.00;99.90
5711;DHT22;61291;52.524;13.422;2023-01-16T08:12:22;5.00;99.90
5711;DHT22;61291;52.524;13.422;2023-01-16T08:14:48;5.10;99.90
5711;DHT22;61291;52.524;13.422;2023-01-16T08:17:13;5.20;99.90
5711;DHT22;61291;52.524;13.422;2023-01-16T08:19:38;5.40;99.90
5711;DHT22;61291;52.524;13.422;2023-01-16T08:22:04;5.50;99.90
5711;DHT22;61291;52.524;13.422;2023-01-16T08:24:30;5.60;99.90
5711;DHT22;61291;52.524;13.422;2023-01-16T08:26:55;5.70;99.90
5711;DHT22;61291;52.524;13.422;2023-01-16T08:29:22;5.80;99.90
5711;DHT22;61291;52.524;13.422;2023-01-16T08:31:48;5.90;99.90
5711;DHT22;61291;52.524;13.422;2023-01-16T08:34:13;6.10;99.90
5711;DHT22;61291;52.524;13.422;2023-01-16T08:36:39;6.30;99.90
5711;DHT22;61291;52.524;13.422;2023-01-16T08:39:04;6.30;99.90
5711;DHT22;61291;52.524;13.422;2023-01-16T08:41:30;6.30;99.90
5711;DHT22;61291;52.524;13.422;2023-01-16T08:44:13;6.20;99.90
5711;DHT22;61291;52.524;13.422;2023-01-16T08:47:04;6.10;99.90
5711;DHT22;61291;52.524;13.422;2023-01-16T08:49:49;6.10;99.90
5711;DHT22;61291;52.524;13.422;2023-01-16T08:52:34;6.20;99.90
5711;DHT22;61291;52.524;13.422;2023-01-16T08:55:02;6.20;99.90
5711;DHT22;61291;52.524;13.422;2023-01-16T08:57:28;6.10;99.90
5711;DHT22;61291;52.524;13.422;2023-01-16T08:59:55;6.10;99.90
5711;DHT22;61291;52.524;13.422;2023-01-16T09:02:22;6.20;99.90
5711;DHT22;61291;52.524;13.422;2023-01-16T09:04:48;6.10;99.90
5711;DHT22;61291;52.524;13.422;2023-01-16T09:07:15;6.10;99.90
5711;DHT22;61291;52.524;13.422;2023-01-16T09:09:40;6.10;99.90
5711;DHT22;61291;52.524;13.422;2023-01-16T09:12:09;6.00;99.90
5711;DHT22;61291;52.524;13.422;2023-01-16T09:14:53;6.00;99.90
5711;DHT22;61291;52.524;13.422;2023-01-16T09:17:20;6.00;99.90
5711;DHT22;61291;52.524;13.422;2023-01-16T09:19:46;6.00;99.90
5711;DHT22;61291;52.524;13.422;2023-01-16T09:22:11;6.00;99.90
5711;DHT22;61291;52.524;13.422;2023-01-16T09:24:37;6.00;99.90
5711;DHT22;61291;52.524;13.422;2023-01-16T09:27:04;6.00;99.90
5711;DHT22;61291;52.524;13.422;2023-01-16T09:29:30;6.00;99.90
5711;DHT22;61291;52.524;13.422;2023-01-16T09:31:56;6.00;99.90
5711;DHT22;61291;52.524;13.422;2023-01-16T09:34:21;6.00;99.90
5711;DHT22;61291;52.524;13.422;2023-01-16T09:36:47;6.00;99.90
5711;DHT22;61291;52.524;13.422;2023-01-16T09:39:12;6.00;99.90
5711;DHT22;61291;52.524;13.422;2023-01-16T09:44:36;6.10;99.90
5711;DHT22;61291;52.524;13.422;2023-01-16T09:47:02;6.10;99.90
5711;DHT22;61291;52.524;13.422;2023-01-16T09:49:51;6.10;99.90
5711;DHT22;61291;52.524;13.422;2023-01-16T09:52:24;6.10;99.90
5711;DHT22;61291;52.524;13.422;2023-01-16T09:58:07;6.20;99.90
5711;DHT22;61291;52.524;13.422;2023-01-16T10:00:54;6.20;99.90
5711;DHT22;61291;52.524;13.422;2023-01-16T10:03:20;6.20;99.90
5711;DHT22;61291;52.524;13.422;2023-01-16T10:06:08;6.30;99.90
5711;DHT22;61291;52.524;13.422;2023-01-16T10:09:01;6.30;99.90
5711;DHT22;61291;52.524;13.422;2023-01-16T10:11:35;6.40;99.90
5711;DHT22;61291;52.524;13.422;2023-01-16T10:14:10;6.40;99.90
5711;DHT22;61291;52.524;13.422;2023-01-16T10:17:04;6.40;99.90
5711;DHT22;61291;52.524;13.422;2023-01-16T10:19:46;6.50;99.90
5711;DHT22;61291;52.524;13.422;2023-01-16T10:22:30;6.60;99.90
5711;DHT22;61291;52.524;13.422;2023-01-16T10:25:15;6.60;99.90
5711;DHT22;61291;52.524;13.422;2023-01-16T10:28:05;6.70;99.90
5711;DHT22;61291;52.524;13.422;2023-01-16T10:30:43;6.80;99.90
5711;DHT22;61291;52.524;13.422;2023-01-16T10:33:16;6.80;99.90
5711;DHT22;61291;52.524;13.422;2023-01-16T10:35:46;6.90;99.90
5711;DHT22;61291;52.524;13.422;2023-01-16T10:38:37;7.00;99.90
5711;DHT22;61291;52.524;13.422;2023-01-16T10:41:05;7.10;99.90
5711;DHT22;61291;52.524;13.422;2023-01-16T10:43:53;7.10;99.90
5711;DHT22;61291;52.524;13.422;2023-01-16T10:46:38;7.20;99.90
5711;DHT22;61291;52.524;13.422;2023-01-16T10:49:24;7.30;99.90
5711;DHT22;61291;52.524;13.422;2023-01-16T10:51:54;7.40;99.90
5711;DHT22;61291;52.524;13.422;2023-01-16T10:54:21;7.50;99.90
5711;DHT22;61291;52.524;13.422;2023-01-16T10:56:47;7.50;99.90
5711;DHT22;61291;52.524;13.422;2023-01-16T10:59:13;7.50;99.90
5711;DHT22;61291;52.524;13.422;2023-01-16T11:01:41;7.60;99.90
5711;DHT22;61291;52.524;13.422;2023-01-16T11:04:10;7.60;99.90
5711;DHT22;61291;52.524;13.422;2023-01-16T11:06:36;7.70;99.90
5711;DHT22;61291;52.524;13.422;2023-01-16T11:11:40;7.80;99.90
5711;DHT22;61291;52.524;13.422;2023-01-16T11:14:54;7.80;99.90
5711;DHT22;61291;52.524;13.422;2023-01-16T11:17:39;7.80;99.90
5711;DHT22;61291;52.524;13.422;2023-01-16T11:20:40;7.90;99.90
5711;DHT22;61291;52.524;13.422;2023-01-16T11:23:25;7.90;99.90
5711;DHT22;61291;52.524;13.422;2023-01-16T11:25:53;7.90;99.90
5711;DHT22;61291;52.524;13.422;2023-01-16T11:28:28;8.00;99.90
5711;DHT22;61291;52.524;13.422;2023-01-16T11:30:56;8.00;99.90
5711;DHT22;61291;52.524;13.422;2023-01-16T11:33:26;8.10;99.90
5711;DHT22;61291;52.524;13.422;2023-01-16T11:35:56;8.10;99.90
5711;DHT22;61291;52.524;13.422;2023-01-16T11:38:23;8.20;99.90
5711;DHT22;61291;52.524;13.422;2023-01-16T11:40:50;8.20;99.90
5711;DHT22;61291;52.524;13.422;2023-01-16T11:43:22;8.20;99.90
5711;DHT22;61291;52.524;13.422;2023-01-16T11:46:32;8.20;99.90
5711;DHT22;61291;52.524;13.422;2023-01-16T11:49:00;8.30;99.90
5711;DHT22;61291;52.524;13.422;2023-01-16T11:51:32;8.30;99.90
5711;DHT22;61291;52.524;13.422;2023-01-16T11:53:59;8.30;99.90
5711;DHT22;61291;52.524;13.422;2023-01-16T11:59:24;8.30;99.90
5711;DHT22;61291;52.524;13.422;2023-01-16T12:13:59;8.40;99.90
5711;DHT22;61291;52.524;13.422;2023-01-16T12:22:26;8.40;99.90
5711;DHT22;61291;52.524;13.422;2023-01-16T12:25:23;8.40;99.40
5711;DHT22;61291;52.524;13.422;2023-01-16T12:30:54;8.40;99.80
5711;DHT22;61291;52.524;13.422;2023-01-16T12:36:42;8.70;99.80
5711;DHT22;61291;52.524;13.422;2023-01-16T12:42:09;8.70;99.50
5711;DHT22;61291;52.524;13.422;2023-01-16T12:50:56;8.80;99.40
5711;DHT22;61291;52.524;13.422;2023-01-16T12:53:29;8.90;99.60
5711;DHT22;61291;52.524;13.422;2023-01-16T12:59:04;9.00;98.20
5711;DHT22;61291;52.524;13.422;2023-01-16T13:01:39;9.10;99.00
5711;DHT22;61291;52.524;13.422;2023-01-16T13:04:13;9.20;98.90
5711;DHT22;61291;52.524;13.422;2023-01-16T13:06:51;9.20;98.90
5711;DHT22;61291;52.524;13.422;2023-01-16T13:09:35;9.20;98.60
5711;DHT22;61291;52.524;13.422;2023-01-16T13:12:16;9.10;98.10
5711;DHT22;61291;52.524;13.422;2023-01-16T13:15:12;9.10;97.80
5711;DHT22;61291;52.524;13.422;2023-01-16T13:17:46;9.10;97.80
5711;DHT22;61291;52.524;13.422;2023-01-16T13:20:14;9.10;97.80
5711;DHT22;61291;52.524;13.422;2023-01-16T13:22:54;9.10;97.70
5711;DHT22;61291;52.524;13.422;2023-01-16T13:25:36;9.00;97.30
5711;DHT22;61291;52.524;13.422;2023-01-16T13:28:24;8.90;97.50
5711;DHT22;61291;52.524;13.422;2023-01-16T13:30:53;8.80;97.50
5711;DHT22;61291;52.524;13.422;2023-01-16T13:33:22;8.80;97.50
5711;DHT22;61291;52.524;13.422;2023-01-16T13:41:43;8.60;97.40
5711;DHT22;61291;52.524;13.422;2023-01-16T13:44:17;8.60;97.10
5711;DHT22;61291;52.524;13.422;2023-01-16T13:47:14;8.60;97.00
5711;DHT22;61291;52.524;13.422;2023-01-16T13:49:40;8.60;97.00
5711;DHT22;61291;52.524;13.422;2023-01-16T13:52:18;8.60;97.00
5711;DHT22;61291;52.524;13.422;2023-01-16T13:54:44;8.50;96.70
5711;DHT22;61291;52.524;13.422;2023-01-16T13:57:20;8.50;96.80
5711;DHT22;61291;52.524;13.422;2023-01-16T13:59:51;8.50;96.80
5711;DHT22;61291;52.524;13.422;2023-01-16T14:02:41;8.50;96.80
5711;DHT22;61291;52.524;13.422;2023-01-16T14:05:23;8.40;96.30
5711;DHT22;61291;52.524;13.422;2023-01-16T14:13:34;8.20;96.50
5711;DHT22;61291;52.524;13.422;2023-01-16T14:21:39;8.10;96.80
5711;DHT22;61291;52.524;13.422;2023-01-16T14:24:12;8.00;97.20
5711;DHT22;61291;52.524;13.422;2023-01-16T14:29:19;7.90;97.40
5711;DHT22;61291;52.524;13.422;2023-01-16T14:34:40;7.80;98.00
5711;DHT22;61291;52.524;13.422;2023-01-16T14:37:15;7.70;97.90
5711;DHT22;61291;52.524;13.422;2023-01-16T14:39:54;7.60;98.10
5711;DHT22;61291;52.524;13.422;2023-01-16T14:42:39;7.50;98.30
5711;DHT22;61291;52.524;13.422;2023-01-16T14:45:30;7.50;98.40
5711;DHT22;61291;52.524;13.422;2023-01-16T14:57:31;7.20;99.00
5711;DHT22;61291;52.524;13.422;2023-01-16T15:00:07;7.10;98.90
5711;DHT22;61291;52.524;13.422;2023-01-16T15:02:46;7.00;98.90
5711;DHT22;61291;52.524;13.422;2023-01-16T15:05:33;7.00;99.10
5711;DHT22;61291;52.524;13.422;2023-01-16T15:08:35;6.90;99.50
5711;DHT22;61291;52.524;13.422;2023-01-16T15:11:08;6.80;99.40
5711;DHT22;61291;52.524;13.422;2023-01-16T15:14:22;6.70;99.80
5711;DHT22;61291;52.524;13.422;2023-01-16T15:20:15;6.50;99.90
5711;DHT22;61291;52.524;13.422;2023-01-16T15:23:01;6.40;99.90
5711;DHT22;61291;52.524;13.422;2023-01-16T15:28:32;6.20;99.90
5711;DHT22;61291;52.524;13.422;2023-01-16T15:31:01;6.20;99.90
5711;DHT22;61291;52.524;13.422;2023-01-16T15:33:32;6.20;99.90
5711;DHT22;61291;52.524;13.422;2023-01-16T15:36:24;6.10;99.90
5711;DHT22;61291;52.524;13.422;2023-01-16T15:38:56;6.10;99.90
5711;DHT22;61291;52.524;13.422;2023-01-16T15:41:26;6.00;99.90
5711;DHT22;61291;52.524;13.422;2023-01-16T15:44:13;6.00;99.90
5711;DHT22;61291;52.524;13.422;2023-01-16T15:50:40;6.00;99.90
5711;DHT22;61291;52.524;13.422;2023-01-16T15:53:08;5.90;99.90
5711;DHT22;61291;52.524;13.422;2023-01-16T15:55:44;5.90;99.90
5711;DHT22;61291;52.524;13.422;2023-01-16T15:58:15;5.90;99.90
5711;DHT22;61291;52.524;13.422;2023-01-16T16:00:42;5.90;99.90
5711;DHT22;61291;52.524;13.422;2023-01-16T16:03:17;5.90;99.90
5711;DHT22;61291;52.524;13.422;2023-01-16T16:05:48;5.90;99.90
5711;DHT22;61291;52.524;13.422;2023-01-16T16:08:18;5.90;99.90
5711;DHT22;61291;52.524;13.422;2023-01-16T16:10:45;5.80;99.90
5711;DHT22;61291;52.524;13.422;2023-01-16T16:13:30;5.80;99.90
5711;DHT22;61291;52.524;13.422;2023-01-16T16:16:00;5.80;99.90
5711;DHT22;61291;52.524;13.422;2023-01-16T16:18:57;5.70;99.90
5711;DHT22;61291;52.524;13.422;2023-01-16T16:21:25;5.80;99.90
5711;DHT22;61291;52.524;13.422;2023-01-16T16:24:06;5.70;99.90
5711;DHT22;61291;52.524;13.422;2023-01-16T16:26:42;5.60;99.90
5711;DHT22;61291;52.524;13.422;2023-01-16T16:29:19;5.60;99.90
5711;DHT22;61291;52.524;13.422;2023-01-16T16:31:46;5.50;99.90
5711;DHT22;61291;52.524;13.422;2023-01-16T16:34:17;5.50;99.90
5711;DHT22;61291;52.524;13.422;2023-01-16T16:36:46;5.50;99.90
5711;DHT22;61291;52.524;13.422;2023-01-16T16:41:58;5.40;99.90
5711;DHT22;61291;52.524;13.422;2023-01-16T16:47:36;5.40;99.90
5711;DHT22;61291;52.524;13.422;2023-01-16T16:50:26;5.40;99.90
5711;DHT22;61291;52.524;13.422;2023-01-16T16:53:03;5.40;99.90
5711;DHT22;61291;52.524;13.422;2023-01-16T16:55:36;5.40;99.90
5711;DHT22;61291;52.524;13.422;2023-01-16T16:58:04;5.40;99.90
5711;DHT22;61291;52.524;13.422;2023-01-16T17:00:31;5.30;99.90
5711;DHT22;61291;52.524;13.422;2023-01-16T17:03:06;5.30;99.90
5711;DHT22;61291;52.524;13.422;2023-01-16T17:05:36;5.40;99.90
5711;DHT22;61291;52.524;13.422;2023-01-16T17:08:02;5.30;99.90
5711;DHT22;61291;52.524;13.422;2023-01-16T17:10:28;5.30;99.90
5711;DHT22;61291;52.524;13.422;2023-01-16T17:12:54;5.30;99.90
5711;DHT22;61291;52.524;13.422;2023-01-16T17:15:21;5.30;99.90
5711;DHT22;61291;52.524;13.422;2023-01-16T17:17:47;5.30;99.90
5711;DHT22;61291;52.524;13.422;2023-01-16T17:20:17;5.30;99.90
5711;DHT22;61291;52.524;13.422;2023-01-16T17:22:43;5.30;99.90
5711;DHT22;61291;52.524;13.422;2023-01-16T17:25:11;5.20;99.90
5711;DHT22;61291;52.524;13.422;2023-01-16T17:27:56;5.20;99.90
5711;DHT22;61291;52.524;13.422;2023-01-16T17:30:23;5.20;99.90
5711;DHT22;61291;52.524;13.422;2023-01-16T17:32:57;5.10;99.90
5711;DHT22;61291;52.524;13.422;2023-01-16T17:35:25;5.10;99.90
5711;DHT22;61291;52.524;13.422;2023-01-16T17:37:51;5.10;99.90
5711;DHT22;61291;52.524;13.422;2023-01-16T17:40:16;5.00;99.90
5711;DHT22;61291;52.524;13.422;2023-01-16T17:42:42;5.00;99.90
5711;DHT22;61291;52.524;13.422;2023-01-16T17:45:34;4.90;99.90
5711;DHT22;61291;52.524;13.422;2023-01-16T17:48:24;4.80;99.90
5711;DHT22;61291;52.524;13.422;2023-01-16T17:50:49;4.80;99.90
5711;DHT22;61291;52.524;13.422;2023-01-16T17:53:18;4.90;99.90
5711;DHT22;61291;52.524;13.422;2023-01-16T17:55:46;5.00;99.90
5711;DHT22;61291;52.524;13.422;2023-01-16T17:58:37;5.20;99.90
5711;DHT22;61291;52.524;13.422;2023-01-16T18:01:22;5.40;99.90
5711;DHT22;61291;52.524;13.422;2023-01-16T18:03:53;5.50;99.90
5711;DHT22;61291;52.524;13.422;2023-01-16T18:06:40;5.60;99.90